threebestrated.in alexa rank chart, threebestrated.in alexa rank daily changes

threebestrated.in alexa rank chart, threebestrated.in alexa rank daily changes

threebestrated.in
Actual rank:
338 597

RANK HISTORY

Date Rank Diff
2017/11/20 338 597 -3 697
2017/11/19 342 294 -8 906
2017/11/18 351 200 +3 999
2017/11/17 347 201 -2 529
2017/11/16 349 730 -435
2017/11/15 350 165 +8 019
2017/11/14 342 146 +1 104
2017/11/13 341 042 -358
2017/11/12 341 400 -3 387
2017/11/11 344 787 +305
2017/11/10 344 482 -6 832
2017/11/09 351 314 -750
2017/11/08 352 064 -3 594
2017/11/07 355 658 -14 292
2017/11/06 369 950 +3 011
2017/11/05 366 939 +8 579
2017/11/04 358 360 +1 180
2017/11/03 357 180 +324
2017/11/02 356 856 -5 572
2017/11/01 362 428 +1 878
2017/10/31 360 550 -2 034
2017/10/30 362 584 -4 088
2017/10/29 366 672 -3 219
2017/10/28 369 891 -38 021
2017/10/27 407 912 -1 683
2017/10/26 409 595 -3 126
2017/10/25 412 721 -6 959
2017/10/24 419 680 +3 639
2017/10/23 416 041 -70
2017/10/22 416 111 +2 621
2017/10/21 413 490 +604
2017/10/20 412 886 +2 384
2017/10/19 410 502 +15 638
2017/10/18 394 864 -18 435
2017/10/17 413 299 +7 894
2017/10/16 405 405 -8 871
2017/10/14 414 276 +3 028
2017/10/13 411 248 +1 078
2017/10/12 410 170 -2 962
2017/10/11 413 132 +14 536
2017/10/10 398 596 +5 395
2017/10/09 393 201 -1 852
2017/10/08 395 053 -1 098
2017/10/07 396 151 -4 261
2017/10/06 400 412 -11 472
2017/10/05 411 884 -8 074
2017/10/04 419 958 +7 163
2017/10/03 412 795 +10 186
2017/10/02 402 609 -5 102
2017/10/01 407 711 -2 650
2017/09/30 410 361 +11 856
2017/09/29 398 505 +3 916
2017/09/28 394 589 -10 118
2017/09/27 404 707 -4 111
2017/09/26 408 818 +2 702
2017/09/25 406 116 +5 973
2017/09/24 400 143 +8 928
2017/09/23 391 215 -3 662
2017/09/22 394 877

WIDGET FOR YOUR SITE

DOMAINS WITH THE NEAREST RANK

Domain Rank
kotisibuy.com 338 592
eau.ac.ae 338 593
thelinksmaster.com 338 594
bard.org 338 595
freewebsitedirectory.com 338 596
threebestrated.in 338 597
isopixel.net 338 598
kurtkinetic.com 338 599
macro-video.com 338 600
fbook.net 338 601
pramati.com 338 602

DOMAINS WITH THE NEAREST RANK BY TLD .in

Domain Rank
niyukti.in 337 227
getrechargeplans.in 337 332
lotto.in 337 359
myanatomy.in 337 862
jioreliance4g.in 338 048
threebestrated.in 338 597
findtraininfo.in 338 628
c2k.in 338 629
ebalbharati.in 338 672
credosystemz.in 338 859
syromalabarchurch.in 339 033